createdAt,value
2023-04-11T00:01:30.145Z,50.72
2023-04-11T00:03:58.242Z,50.71
2023-04-11T00:06:26.478Z,50.34
2023-04-11T00:08:54.491Z,50.38
2023-04-11T00:11:22.376Z,50.08
2023-04-11T00:13:50.277Z,49.97
2023-04-11T00:16:19.852Z,50.07
2023-04-11T00:18:47.726Z,50.29
2023-04-11T00:21:15.912Z,50.05
2023-04-11T00:23:43.693Z,50.43
2023-04-11T00:26:11.908Z,50.14
2023-04-11T00:28:40.694Z,50.12
2023-04-11T00:31:08.626Z,50.16
2023-04-11T00:33:36.919Z,50.07
2023-04-11T00:36:06.292Z,49.95
2023-04-11T00:38:34.198Z,50.00
2023-04-11T00:41:02.326Z,49.81
2023-04-11T00:43:30.209Z,50.30
2023-04-11T00:45:59.719Z,50.23
2023-04-11T00:48:28.785Z,50.51
2023-04-11T00:50:56.790Z,50.47
2023-04-11T00:53:24.957Z,50.42
2023-04-11T00:55:52.921Z,50.71
2023-04-11T00:58:20.697Z,50.28
2023-04-11T01:00:51.748Z,50.68
2023-04-11T01:03:19.990Z,50.81
2023-04-11T01:05:54.762Z,50.60
2023-04-11T01:08:23.167Z,50.90
2023-04-11T01:10:53.420Z,50.83
2023-04-11T01:13:21.309Z,51.19
2023-04-11T01:15:49.264Z,50.90
2023-04-11T01:18:17.034Z,51.38
2023-04-11T01:20:44.955Z,51.06
2023-04-11T01:23:14.520Z,51.45
2023-04-11T01:25:42.719Z,51.19
2023-04-11T01:28:11.848Z,51.36
2023-04-11T01:30:39.677Z,51.49
2023-04-11T01:33:07.911Z,51.94
2023-04-11T01:35:35.874Z,51.96
2023-04-11T01:38:04.876Z,51.99
2023-04-11T01:40:33.633Z,52.20
2023-04-11T01:43:04.657Z,51.83
2023-04-11T01:45:33.053Z,51.99
2023-04-11T01:48:05.810Z,51.64
2023-04-11T01:50:33.677Z,52.05
2023-04-11T01:53:01.861Z,51.56
2023-04-11T01:55:30.794Z,51.86
2023-04-11T01:57:59.298Z,51.49
2023-04-11T02:00:27.116Z,51.56
2023-04-11T02:02:54.868Z,51.41
2023-04-11T02:05:24.147Z,51.47
2023-04-11T02:07:52.022Z,51.01
2023-04-11T02:10:19.804Z,51.24
2023-04-11T02:12:47.660Z,51.15
2023-04-11T02:15:15.483Z,50.89
2023-04-11T02:17:45.581Z,51.13
2023-04-11T02:20:14.310Z,51.21
2023-04-11T02:22:42.122Z,50.80
2023-04-11T02:25:10.135Z,50.93
2023-04-11T02:27:37.902Z,50.66
2023-04-11T02:30:06.438Z,50.52
2023-04-11T02:32:35.438Z,50.47
2023-04-11T02:35:05.103Z,50.03
2023-04-11T02:37:32.988Z,49.95
2023-04-11T02:40:02.570Z,49.63
2023-04-11T02:42:31.035Z,49.24
2023-04-11T02:45:00.261Z,49.08
2023-04-11T02:47:30.428Z,49.47
2023-04-11T02:50:03.279Z,49.52
2023-04-11T02:52:39.566Z,49.86
2023-04-11T02:55:07.665Z,49.12
2023-04-11T02:57:38.697Z,49.27
2023-04-11T03:00:10.421Z,49.35
2023-04-11T03:02:46.873Z,49.13
2023-04-11T03:05:15.906Z,49.44
2023-04-11T03:07:50.148Z,48.94
2023-04-11T03:10:18.142Z,49.07
2023-04-11T03:12:46.322Z,48.73
2023-04-11T03:15:17.941Z,48.73
2023-04-11T03:17:46.073Z,49.03
2023-04-11T03:20:19.899Z,48.77
2023-04-11T03:22:51.517Z,48.91
2023-04-11T03:25:20.621Z,49.45
2023-04-11T03:27:51.473Z,49.15
2023-04-11T03:30:19.321Z,48.99
2023-04-11T03:32:48.873Z,48.73
2023-04-11T03:35:18.889Z,48.66
2023-04-11T03:37:48.337Z,48.46
2023-04-11T03:40:18.952Z,48.77
2023-04-11T03:42:52.570Z,48.79
2023-04-11T03:45:25.391Z,48.69
2023-04-11T03:47:55.257Z,48.84
2023-04-11T03:50:28.371Z,48.48
2023-04-11T03:53:00.868Z,48.40
2023-04-11T03:55:29.909Z,48.26
2023-04-11T03:57:58.536Z,49.14
2023-04-11T04:00:28.664Z,49.50
2023-04-11T04:03:04.890Z,48.98
2023-04-11T04:05:33.050Z,49.04
2023-04-11T04:08:01.225Z,49.22
2023-04-11T04:10:43.012Z,49.07
2023-04-11T04:13:11.879Z,49.40
2023-04-11T04:15:43.211Z,49.39
2023-04-11T04:18:13.410Z,49.65
2023-04-11T04:20:44.757Z,49.66
2023-04-11T04:23:14.294Z,49.45
2023-04-11T04:25:58.391Z,49.21
2023-04-11T04:28:29.357Z,49.42
2023-04-11T04:30:59.678Z,49.78
2023-04-11T04:33:33.346Z,49.65
2023-04-11T04:36:10.312Z,50.71
2023-04-11T04:38:42.332Z,50.85
2023-04-11T04:41:22.279Z,51.07
2023-04-11T04:43:58.454Z,50.31
2023-04-11T04:46:56.793Z,49.62
2023-04-11T04:49:28.681Z,49.45
2023-04-11T04:51:56.378Z,49.36
2023-04-11T04:54:24.426Z,49.65
2023-04-11T04:56:54.297Z,49.69
2023-04-11T04:59:23.371Z,49.76
2023-04-11T05:01:57.783Z,49.93
2023-04-11T05:04:30.547Z,49.99
2023-04-11T05:07:00.857Z,49.57
2023-04-11T05:09:31.015Z,49.45
2023-04-11T05:12:09.326Z,49.86
2023-04-11T05:14:39.993Z,49.74
2023-04-11T05:17:08.203Z,49.51
2023-04-11T05:19:38.676Z,49.47
2023-04-11T05:22:06.412Z,49.43
2023-04-11T05:24:38.705Z,49.62
2023-04-11T05:27:09.384Z,49.57
2023-04-11T05:29:37.467Z,49.85
2023-04-11T05:32:05.911Z,49.92
2023-04-11T05:34:56.671Z,49.88
2023-04-11T05:37:50.495Z,50.11
2023-04-11T05:40:20.170Z,49.94
2023-04-11T05:42:53.139Z,50.25
2023-04-11T05:45:21.030Z,49.95
2023-04-11T05:47:49.972Z,49.87
2023-04-11T05:50:18.210Z,49.49
2023-04-11T05:52:46.205Z,49.67
2023-04-11T05:55:15.112Z,49.06
2023-04-11T05:57:42.830Z,49.12
2023-04-11T06:00:16.648Z,48.66
2023-04-11T06:02:45.059Z,48.73
2023-04-11T06:05:13.178Z,48.48
2023-04-11T06:07:41.655Z,48.68
2023-04-11T06:10:10.560Z,48.62
2023-04-11T06:12:41.285Z,48.69
2023-04-11T06:15:09.855Z,47.65
2023-04-11T06:17:38.658Z,47.68
2023-04-11T06:20:08.646Z,47.93
2023-04-11T06:22:36.723Z,47.40
2023-04-11T06:25:04.911Z,47.65
2023-04-11T06:27:33.162Z,47.98
2023-04-11T06:30:04.514Z,47.28
2023-04-11T06:32:32.327Z,47.30
2023-04-11T06:35:00.736Z,47.20
2023-04-11T06:37:29.968Z,46.92
2023-04-11T06:40:01.459Z,47.03
2023-04-11T06:42:30.111Z,47.52
2023-04-11T06:44:58.877Z,47.07
2023-04-11T06:47:26.800Z,47.38
2023-04-11T06:49:55.771Z,47.34
2023-04-11T06:52:24.581Z,47.33
2023-04-11T06:54:53.950Z,46.91
2023-04-11T06:57:22.326Z,47.04
2023-04-11T06:59:50.108Z,46.90
2023-04-11T07:02:18.044Z,47.20
2023-04-11T07:04:46.312Z,46.92
2023-04-11T07:07:14.279Z,46.83
2023-04-11T07:09:43.504Z,46.82
2023-04-11T07:12:11.269Z,46.32
2023-04-11T07:14:39.671Z,46.72
2023-04-11T07:17:07.635Z,46.62
2023-04-11T07:19:35.639Z,46.89
2023-04-11T07:22:04.482Z,46.46
2023-04-11T07:24:32.604Z,46.45
2023-04-11T07:27:01.992Z,46.61
2023-04-11T07:29:30.026Z,46.85
2023-04-11T07:32:00.396Z,46.56
2023-04-11T07:34:28.348Z,46.46
2023-04-11T07:37:01.379Z,46.82
2023-04-11T07:39:29.188Z,47.14
2023-04-11T07:41:56.962Z,47.17
2023-04-11T07:44:24.938Z,47.21
2023-04-11T07:46:52.882Z,47.13
2023-04-11T07:49:20.797Z,47.41
2023-04-11T07:51:48.740Z,47.70
2023-04-11T07:54:16.964Z,47.64
2023-04-11T07:56:46.572Z,47.50
2023-04-11T07:59:16.197Z,47.74
2023-04-11T08:01:44.152Z,47.52
2023-04-11T08:04:12.413Z,47.73
2023-04-11T08:06:40.343Z,47.93
2023-04-11T08:09:08.476Z,47.97
2023-04-11T08:11:36.754Z,47.75
2023-04-11T08:14:04.543Z,47.84
2023-04-11T08:16:35.819Z,48.07
2023-04-11T08:19:03.575Z,47.79
2023-04-11T08:21:32.419Z,47.70
2023-04-11T08:24:00.338Z,47.76
2023-04-11T08:26:29.386Z,48.13
2023-04-11T08:28:57.174Z,47.95
2023-04-11T08:31:25.790Z,48.01
2023-04-11T08:33:53.660Z,47.82
2023-04-11T08:36:21.489Z,47.83
2023-04-11T08:38:52.003Z,47.98
2023-04-11T08:41:19.767Z,48.16
2023-04-11T08:43:48.116Z,47.39
2023-04-11T08:46:18.060Z,47.10
2023-04-11T08:48:46.106Z,46.85
2023-04-11T08:51:14.844Z,46.56
2023-04-11T08:53:43.491Z,46.04
2023-04-11T08:56:17.229Z,45.76
2023-04-11T08:58:45.659Z,45.96
2023-04-11T09:01:34.268Z,45.82
2023-04-11T09:04:05.436Z,46.41
2023-04-11T09:06:34.375Z,46.32
2023-04-11T09:09:08.294Z,46.68
2023-04-11T09:11:53.622Z,46.82
2023-04-11T09:14:26.474Z,47.08
2023-04-11T09:17:02.577Z,47.43
2023-04-11T09:19:33.448Z,47.71
2023-04-11T09:22:07.156Z,47.37
2023-04-11T09:24:36.280Z,47.51
2023-04-11T09:27:17.074Z,47.97
2023-04-11T09:29:46.702Z,47.96
2023-04-11T09:32:36.121Z,48.24
2023-04-11T09:35:16.050Z,48.04
2023-04-11T09:37:49.361Z,48.48
2023-04-11T09:40:19.956Z,48.27
2023-04-11T09:42:48.959Z,49.00
2023-04-11T09:45:23.591Z,49.14
2023-04-11T09:47:53.629Z,48.99
2023-04-11T09:50:23.049Z,49.10
2023-04-11T09:52:53.013Z,49.02
2023-04-11T09:55:23.017Z,49.40
2023-04-11T09:57:52.947Z,49.42
2023-04-11T10:00:32.448Z,49.31
2023-04-11T10:03:01.052Z,49.65
2023-04-11T10:05:30.654Z,49.47
2023-04-11T10:08:32.950Z,49.72
2023-04-11T10:11:02.123Z,49.54
2023-04-11T10:13:39.527Z,49.75
2023-04-11T10:16:15.672Z,49.61
2023-04-11T10:18:52.854Z,49.68
2023-04-11T10:21:33.454Z,52.04
2023-04-11T10:24:18.388Z,50.74
2023-04-11T10:26:50.612Z,49.83
2023-04-11T10:29:33.214Z,49.26
2023-04-11T10:32:21.620Z,50.01
2023-04-11T10:34:55.793Z,49.22
2023-04-11T10:37:37.262Z,49.28
2023-04-11T10:40:10.186Z,49.48
2023-04-11T10:42:43.832Z,49.34
2023-04-11T10:45:24.757Z,49.57
2023-04-11T10:48:08.118Z,49.74
2023-04-11T10:50:42.538Z,49.76
2023-04-11T10:53:34.251Z,51.75
2023-04-11T10:56:03.865Z,50.10
2023-04-11T10:58:40.934Z,49.89
2023-04-11T11:01:21.419Z,49.82
2023-04-11T11:04:00.363Z,50.07
2023-04-11T11:06:29.702Z,50.81
2023-04-11T11:09:00.357Z,51.06
2023-04-11T11:11:28.451Z,50.24
2023-04-11T11:13:56.837Z,50.18
2023-04-11T11:16:26.777Z,50.21
2023-04-11T11:18:57.839Z,50.28
2023-04-11T11:21:28.806Z,50.27
2023-04-11T11:24:03.835Z,50.50
2023-04-11T11:26:41.633Z,50.42
2023-04-11T11:29:10.925Z,50.67
2023-04-11T11:31:45.973Z,50.55
2023-04-11T11:34:28.516Z,50.48
2023-04-11T11:36:56.745Z,51.91
2023-04-11T11:39:26.138Z,50.25
2023-04-11T11:41:54.108Z,50.86
2023-04-11T11:44:28.315Z,51.68
2023-04-11T11:47:07.377Z,50.51
2023-04-11T11:49:56.838Z,51.67
2023-04-11T11:52:34.586Z,51.32
2023-04-11T11:55:08.720Z,51.64
2023-04-11T11:57:44.921Z,51.24
2023-04-11T12:00:15.299Z,51.30
2023-04-11T12:02:44.698Z,51.11
2023-04-11T12:05:12.960Z,51.45
2023-04-11T12:07:41.068Z,51.38
2023-04-11T12:10:13.845Z,51.29
2023-04-11T12:12:53.111Z,51.11
2023-04-11T12:15:25.759Z,50.84
2023-04-11T12:17:58.186Z,50.84
2023-04-11T12:20:27.435Z,51.44
2023-04-11T12:22:56.457Z,51.17
2023-04-11T12:25:26.130Z,51.21
2023-04-11T12:27:54.434Z,50.98
2023-04-11T12:30:23.335Z,50.85
2023-04-11T12:32:51.423Z,51.42
2023-04-11T12:35:19.579Z,51.16
2023-04-11T12:37:47.505Z,51.11
2023-04-11T12:40:15.780Z,51.16
2023-04-11T12:42:56.234Z,50.92
2023-04-11T12:45:26.252Z,51.53
2023-04-11T12:47:54.932Z,51.01
2023-04-11T12:50:25.829Z,50.73
2023-04-11T12:52:53.807Z,50.52
2023-04-11T12:55:22.494Z,51.31
2023-04-11T12:57:50.417Z,51.31
2023-04-11T13:00:18.624Z,51.76
2023-04-11T13:02:47.115Z,51.47
2023-04-11T13:05:15.814Z,51.10
2023-04-11T13:07:45.558Z,50.79
2023-04-11T13:10:19.866Z,50.66
2023-04-11T13:12:51.352Z,50.69
2023-04-11T13:15:19.972Z,50.56
2023-04-11T13:17:47.917Z,50.64
2023-04-11T13:20:15.676Z,50.18
2023-04-11T13:22:43.760Z,50.89
2023-04-11T13:25:12.485Z,51.27
2023-04-11T13:27:41.957Z,50.72
2023-04-11T13:30:10.759Z,50.51
2023-04-11T13:32:38.917Z,50.46
2023-04-11T13:35:07.505Z,50.75
2023-04-11T13:37:35.700Z,50.70
2023-04-11T13:40:06.635Z,50.75
2023-04-11T13:42:36.766Z,51.00
2023-04-11T13:45:04.874Z,51.09
2023-04-11T13:47:32.583Z,51.15
2023-04-11T13:50:01.581Z,51.17
2023-04-11T13:52:29.419Z,50.49
2023-04-11T13:54:57.529Z,50.44
2023-04-11T13:57:25.511Z,50.72
2023-04-11T13:59:53.242Z,50.36
2023-04-11T14:02:21.321Z,50.43
2023-04-11T14:04:49.761Z,50.50
2023-04-11T14:07:17.842Z,49.79
2023-04-11T14:09:46.060Z,49.70
2023-04-11T14:12:13.647Z,50.12
2023-04-11T14:14:42.436Z,49.34
2023-04-11T14:17:10.753Z,49.49
2023-04-11T14:19:38.997Z,48.94
2023-04-11T14:22:07.065Z,49.50
2023-04-11T14:24:35.132Z,49.06
2023-04-11T14:27:03.393Z,48.87
2023-04-11T14:29:31.555Z,48.40
2023-04-11T14:31:59.479Z,48.91
2023-04-11T14:34:28.801Z,48.71
2023-04-11T14:36:57.619Z,48.19
2023-04-11T14:39:25.714Z,48.47
2023-04-11T14:41:53.752Z,48.50
2023-04-11T14:44:21.419Z,48.58
2023-04-11T14:46:49.767Z,48.31
2023-04-11T14:49:17.714Z,48.53
2023-04-11T14:51:46.146Z,48.71
2023-04-11T14:54:14.185Z,49.12
2023-04-11T14:56:42.296Z,49.28
2023-04-11T14:59:11.547Z,49.44
2023-04-11T15:01:39.783Z,49.47
2023-04-11T15:04:07.928Z,49.80
2023-04-11T15:06:36.324Z,50.08
2023-04-11T15:09:04.844Z,49.65
2023-04-11T15:11:33.389Z,50.03
2023-04-11T15:14:01.480Z,49.96
2023-04-11T15:16:29.342Z,50.41
2023-04-11T15:18:57.343Z,50.35
2023-04-11T15:21:26.840Z,50.02
2023-04-11T15:23:56.355Z,50.03
2023-04-11T15:26:24.627Z,50.00
2023-04-11T15:28:52.592Z,49.42
2023-04-11T15:31:28.460Z,50.12
2023-04-11T15:34:03.643Z,49.23
2023-04-11T15:36:33.935Z,49.79
2023-04-11T15:39:02.329Z,49.70
2023-04-11T15:41:32.067Z,49.03
2023-04-11T15:44:02.762Z,49.49
2023-04-11T15:46:31.030Z,49.51
2023-04-11T15:48:58.840Z,49.29
2023-04-11T15:51:27.342Z,49.29
2023-04-11T15:53:55.669Z,49.12
2023-04-11T15:56:23.693Z,49.12
2023-04-11T15:58:51.444Z,49.09
2023-04-11T16:01:25.966Z,48.91
2023-04-11T16:03:54.424Z,48.55
2023-04-11T16:06:22.747Z,48.77
2023-04-11T16:08:51.300Z,48.99
2023-04-11T16:11:19.414Z,48.92
2023-04-11T16:13:48.706Z,48.49
2023-04-11T16:16:16.615Z,48.88
2023-04-11T16:18:44.755Z,48.77
2023-04-11T16:21:14.158Z,48.72
2023-04-11T16:23:42.911Z,48.98
2023-04-11T16:26:12.073Z,48.75
2023-04-11T16:28:39.932Z,49.02
2023-04-11T16:31:08.032Z,48.88
2023-04-11T16:33:37.872Z,48.76
2023-04-11T16:36:08.798Z,48.81
2023-04-11T16:38:37.121Z,48.91
2023-04-11T16:41:06.217Z,48.78
2023-04-11T16:43:33.872Z,48.87
2023-04-11T16:46:02.130Z,48.78
2023-04-11T16:48:31.767Z,48.38
2023-04-11T16:50:59.682Z,49.00
2023-04-11T16:53:27.670Z,48.43
2023-04-11T16:55:57.270Z,47.94
2023-04-11T16:58:25.008Z,47.89
2023-04-11T17:00:53.256Z,47.65
2023-04-11T17:03:22.120Z,47.27
2023-04-11T17:05:50.083Z,47.38
2023-04-11T17:08:18.352Z,46.46
2023-04-11T17:10:46.561Z,46.20
2023-04-11T17:13:16.105Z,45.65
2023-04-11T17:15:45.807Z,44.77
2023-04-11T17:18:15.178Z,45.20
2023-04-11T17:20:43.762Z,46.09
2023-04-11T17:23:11.597Z,45.05
2023-04-11T17:25:42.367Z,44.68
2023-04-11T17:28:10.222Z,46.19
2023-04-11T17:30:42.683Z,44.97
2023-04-11T17:33:10.504Z,44.29
2023-04-11T17:35:39.417Z,43.96
2023-04-11T17:38:07.551Z,44.07
2023-04-11T17:40:35.575Z,44.37
2023-04-11T17:43:03.729Z,43.51
2023-04-11T17:48:15.313Z,43.88
2023-04-11T17:50:46.569Z,48.69
2023-04-11T17:53:14.563Z,44.42
2023-04-11T17:55:42.562Z,43.78
2023-04-11T17:58:10.272Z,43.02
2023-04-11T18:00:48.466Z,42.97
2023-04-11T18:03:25.546Z,42.89
2023-04-11T18:05:56.897Z,42.17
2023-04-11T18:08:46.908Z,42.43
2023-04-11T18:11:15.159Z,42.89
2023-04-11T18:13:44.026Z,42.80
2023-04-11T18:16:11.958Z,42.45
2023-04-11T18:18:40.342Z,41.98
2023-04-11T18:21:11.964Z,42.59
2023-04-11T18:23:40.928Z,42.61
2023-04-11T18:26:08.674Z,42.73
2023-04-11T18:28:36.657Z,42.93
2023-04-11T18:31:06.033Z,42.89
2023-04-11T18:33:35.171Z,42.63
2023-04-11T18:36:04.244Z,43.13
2023-04-11T18:38:32.264Z,44.04
2023-04-11T18:41:04.678Z,43.99
2023-04-11T18:43:33.859Z,44.02
2023-04-11T18:46:02.358Z,44.33
2023-04-11T18:48:31.874Z,44.64
2023-04-11T18:51:00.627Z,44.70
2023-04-11T18:53:30.237Z,45.63
2023-04-11T18:56:03.166Z,45.63
2023-04-11T18:58:34.295Z,46.24
2023-04-11T19:01:14.586Z,46.49
2023-04-11T19:03:44.322Z,46.36
2023-04-11T19:06:13.203Z,46.82
2023-04-11T19:08:41.781Z,47.31
2023-04-11T19:11:09.651Z,47.71
2023-04-11T19:13:37.745Z,47.90
2023-04-11T19:16:07.481Z,48.10
2023-04-11T19:18:35.747Z,48.42
2023-04-11T19:21:07.017Z,48.55
2023-04-11T19:23:38.348Z,48.41
2023-04-11T19:26:06.465Z,48.48
2023-04-11T19:28:34.542Z,49.19
2023-04-11T19:31:04.667Z,49.56
2023-04-11T19:33:32.677Z,49.15
2023-04-11T19:36:00.622Z,49.51
2023-04-11T19:38:28.614Z,49.47
2023-04-11T19:40:57.258Z,49.66
2023-04-11T19:43:25.998Z,49.70
2023-04-11T19:45:54.064Z,49.87
2023-04-11T19:48:21.884Z,50.18
2023-04-11T19:50:49.904Z,49.87
2023-04-11T19:53:17.805Z,50.05
2023-04-11T19:55:54.202Z,49.93
2023-04-11T19:58:23.967Z,49.77
2023-04-11T20:00:55.293Z,50.01
2023-04-11T20:03:23.385Z,49.76
2023-04-11T20:05:51.371Z,49.61
2023-04-11T20:08:21.398Z,49.69
2023-04-11T20:10:49.370Z,50.04
2023-04-11T20:13:17.233Z,51.41
2023-04-11T20:15:45.368Z,51.23
2023-04-11T20:18:13.577Z,50.81
2023-04-11T20:20:41.613Z,50.39
2023-04-11T20:23:09.529Z,49.70
2023-04-11T20:25:37.466Z,49.28
2023-04-11T20:28:07.613Z,49.04
2023-04-11T20:30:38.708Z,49.01
2023-04-11T20:33:06.936Z,49.05
2023-04-11T20:35:34.908Z,49.23
2023-04-11T20:38:02.954Z,48.84
2023-04-11T20:40:30.762Z,48.81
2023-04-11T20:43:00.459Z,48.58
2023-04-11T20:45:30.125Z,48.67
2023-04-11T20:47:59.808Z,48.56
2023-04-11T20:50:33.351Z,48.51
2023-04-11T20:53:01.859Z,48.76
2023-04-11T20:55:30.997Z,48.67
2023-04-11T20:57:58.936Z,49.13
2023-04-11T21:00:27.320Z,49.11
2023-04-11T21:02:57.904Z,49.10
2023-04-11T21:05:26.607Z,48.92
2023-04-11T21:07:55.393Z,49.12
2023-04-11T21:10:23.414Z,49.11
2023-04-11T21:12:54.598Z,49.11
2023-04-11T21:15:23.067Z,48.83
2023-04-11T21:17:52.368Z,48.84
2023-04-11T21:20:21.462Z,48.74
2023-04-11T21:22:52.956Z,49.10
2023-04-11T21:25:21.404Z,49.04
2023-04-11T21:27:50.008Z,48.98
2023-04-11T21:30:17.790Z,48.99
2023-04-11T21:32:46.109Z,49.38
2023-04-11T21:35:15.436Z,49.32
2023-04-11T21:37:43.364Z,49.04
2023-04-11T21:40:12.826Z,49.05
2023-04-11T21:42:41.208Z,48.55
2023-04-11T21:45:09.133Z,48.79
2023-04-11T21:47:36.912Z,48.30
2023-04-11T21:50:05.050Z,48.07
2023-04-11T21:52:32.968Z,47.58
2023-04-11T21:55:00.616Z,47.72
2023-04-11T21:57:29.677Z,47.24
2023-04-11T21:59:57.593Z,47.36
2023-04-11T22:02:25.747Z,47.30
2023-04-11T22:07:33.156Z,46.87
2023-04-11T22:10:03.953Z,47.04
2023-04-11T22:12:31.680Z,46.71
2023-04-11T22:15:00.168Z,46.62
2023-04-11T22:17:30.344Z,46.76
2023-04-11T22:20:01.061Z,46.63
2023-04-11T22:22:30.428Z,46.81
2023-04-11T22:25:00.015Z,46.48
2023-04-11T22:27:29.571Z,46.66
2023-04-11T22:29:57.691Z,46.40
2023-04-11T22:32:26.710Z,46.24
2023-04-11T22:34:54.815Z,46.51
2023-04-11T22:37:22.886Z,46.53
2023-04-11T22:39:51.056Z,46.61
2023-04-11T22:42:19.019Z,46.11
2023-04-11T22:44:46.951Z,46.48
2023-04-11T22:47:16.884Z,46.37
2023-04-11T22:49:45.233Z,46.64
2023-04-11T22:52:19.097Z,46.56
2023-04-11T22:54:50.240Z,46.24
2023-04-11T22:57:18.315Z,45.98
2023-04-11T22:59:46.481Z,46.09
2023-04-11T23:02:14.798Z,46.05
2023-04-11T23:04:42.603Z,45.95
2023-04-11T23:07:11.425Z,46.13
2023-04-11T23:09:39.182Z,46.14
2023-04-11T23:12:08.531Z,46.10
2023-04-11T23:14:39.684Z,46.25
2023-04-11T23:17:07.679Z,46.25
2023-04-11T23:19:35.844Z,45.80
2023-04-11T23:22:03.729Z,45.96
2023-04-11T23:24:31.849Z,46.34
2023-04-11T23:26:59.600Z,46.07
2023-04-11T23:29:27.697Z,45.83
2023-04-11T23:31:55.578Z,45.97
2023-04-11T23:34:23.236Z,46.06
2023-04-11T23:36:51.947Z,45.89
2023-04-11T23:39:21.715Z,45.87
2023-04-11T23:41:52.386Z,45.67
2023-04-11T23:44:20.319Z,45.94
2023-04-11T23:46:48.189Z,46.29
2023-04-11T23:49:16.057Z,45.81
2023-04-11T23:51:44.280Z,46.07
2023-04-11T23:54:12.371Z,45.97
2023-04-11T23:56:41.666Z,46.41
2023-04-11T23:59:09.627Z,46.32
